Time;durP1;ratioP1;P1;durP2;ratioP2;P2;SDS_P1;SDS_P2;PMS_P1;PMS_P2;Temp;Humidity;BMP_temperature;BMP_pressure;BME280_temperature;BME280_humidity;BME280_pressure;Samples;Min_cycle;Max_cycle;Signal;HPM_P1;HPM_P2
2021/06/02 00:01:56;;;;;;;9.13;6.55;;;;;;;;;;5093555;28;20493;-68
2021/06/02 00:04:23;;;;;;;10.18;6.53;;;;;;;;;;5093691;28;20099;-68
2021/06/02 00:06:50;;;;;;;9.55;6.43;;;;;;;;;;5093868;28;20069;-68
2021/06/02 00:09:17;;;;;;;10.88;6.45;;;;;;;;;;5093865;28;20053;-67
2021/06/02 00:11:43;;;;;;;9.80;7.05;;;;;;;;;;5093812;28;20024;-67
2021/06/02 00:14:10;;;;;;;11.95;7.43;;;358.70;2073.60;;;;;;5093709;28;20046;-66
2021/06/02 00:16:36;;;;;;;9.25;7.28;;;;;;;;;;5093542;28;20024;-68
2021/06/02 00:19:02;;;;;;;13.60;6.90;;;;;;;;;;5084594;28;20009;-68
2021/06/02 00:21:29;;;;;;;7.85;6.82;;;333.60;1996.80;;;;;;5090013;28;20024;-66
2021/06/02 00:23:54;;;;;;;6.82;5.72;;;333.50;2022.40;;;;;;5093817;28;20100;-67
2021/06/02 00:26:21;;;;;;;9.27;6.20;;;333.20;2073.60;;;;;;5092682;28;20107;-66
2021/06/02 00:28:48;;;;;;;8.18;6.68;;;333.10;2278.40;;;;;;5093408;28;20020;-68
2021/06/02 00:31:17;;;;;;;7.72;5.50;;;333.20;2099.20;;;;;;5093476;28;20032;-67
2021/06/02 00:33:43;;;;;;;7.55;5.60;;;333.20;2099.20;;;;;;5093196;28;20020;-70
2021/06/02 00:36:12;;;;;;;8.63;5.38;;;333.20;2150.40;;;;;;5093234;28;20023;-69
2021/06/02 00:38:39;;;;;;;11.10;5.70;;;333.30;2099.20;;;;;;5093093;28;20095;-68
2021/06/02 00:41:05;;;;;;;11.10;5.68;;;333.20;2124.80;;;;;;5093203;28;20024;-69
2021/06/02 00:43:33;;;;;;;7.10;5.55;;;333.10;2099.20;;;;;;5092831;28;20044;-68
2021/06/02 00:45:59;;;;;;;8.02;6.30;;;;;;;;;;5093231;28;20478;-67
2021/06/02 00:48:25;;;;;;;6.85;5.68;;;;;;;;;;5089770;28;20032;-68
2021/06/02 00:50:51;;;;;;;14.90;9.15;;;;;;;;;;5093101;28;20095;-68
2021/06/02 00:53:18;;;;;;;9.77;5.38;;;;;;;;;;5092983;28;20102;-68
2021/06/02 00:55:45;;;;;;;8.82;5.60;;;;;;;;;;5091495;28;20024;-68
2021/06/02 00:58:16;;;;;;;6.95;5.22;;;;;;;;;;5093066;28;20476;-69
2021/06/02 01:00:42;;;;;;;8.60;6.13;;;;;;;;;;5092903;28;20348;-69
2021/06/02 01:03:09;;;;;;;8.15;5.30;;;;;;;;;;5091393;28;20088;-68
2021/06/02 01:05:35;;;;;;;7.55;5.53;;;;;;;;;;5091616;28;20470;-68
2021/06/02 01:08:03;;;;;;;6.50;5.20;;;;;;;;;;5091340;28;20069;-68
2021/06/02 01:10:29;;;;;;;6.78;5.55;;;;;;;;;;5092837;28;20012;-68
2021/06/02 01:12:57;;;;;;;5.85;5.03;;;;;;;;;;5092531;28;20036;-68
2021/06/02 01:15:23;;;;;;;6.28;5.30;;;;;;;;;;5093034;28;20020;-67
2021/06/02 01:17:49;;;;;;;6.10;5.38;;;;;;;;;;5092704;28;20020;-68
2021/06/02 01:20:17;;;;;;;8.57;5.97;;;;;;;;;;5080160;28;20023;-68
2021/06/02 01:22:43;;;;;;;8.35;5.55;;;;;;;;;;5092369;28;20043;-69
2021/06/02 01:25:10;;;;;;;6.70;5.55;;;;;;;;;;5092421;28;20535;-68
2021/06/02 01:27:37;;;;;;;8.65;5.60;;;;;;;;;;5092386;28;20529;-68
2021/06/02 01:30:05;;;;;;;9.05;6.22;;;;;;;;;;5092384;28;20016;-68
2021/06/02 01:32:41;;;;;;;8.32;6.50;;;;;;;;;;5092356;28;20016;-68
2021/06/02 01:35:26;;;;;;;8.20;6.25;;;;;;;;;;5092151;28;20024;-68
2021/06/02 01:37:58;;;;;;;9.15;6.15;;;;;;;;;;5092070;28;20553;-68
2021/06/02 01:40:42;;;;;;;11.98;5.65;;;308.00;2048.00;;;;;;5092524;28;20024;-67
2021/06/02 01:43:54;;;;;;;7.32;5.55;;;307.90;2073.60;;;;;;5092098;28;20052;-67
2021/06/02 01:46:29;;;;;;;6.95;6.25;;;307.90;2073.60;;;;;;5092478;28;20020;-68
2021/06/02 01:49:52;;;;;;;6.95;5.57;;;308.00;2048.00;;;;;;5089054;28;20095;-67
2021/06/02 01:52:35;;;;;;;7.10;5.90;;;308.10;2048.00;;;;;;5010070;28;20026;-68
2021/06/02 01:55:07;;;;;;;7.38;5.38;;;332.80;2048.00;;;;;;5010129;28;20026;-67
2021/06/02 01:57:41;;;;;;;;;;;332.80;2022.40;;;;;;5010412;28;20041;-68
2021/06/02 02:00:42;;;;;;;9.23;6.80;;;333.00;2022.40;;;;;;4993682;28;19995;-67
2021/06/02 02:03:33;;;;;;;9.32;5.43;;;333.10;1996.80;;;;;;5010084;28;20061;-68
2021/06/02 02:06:14;;;;;;;10.50;5.95;;;332.90;2022.40;;;;;;4999336;28;20129;-68
2021/06/02 02:09:02;;;;;;;6.45;4.78;;;332.90;2022.40;;;;;;4993688;28;20026;-67
2021/06/02 02:11:33;;;;;;;9.98;5.13;;;332.90;2022.40;;;;;;5009830;28;20041;-67
2021/06/02 02:14:24;;;;;;;6.95;5.38;;;332.90;2022.40;;;;;;5010092;28;20476;-67
2021/06/02 02:17:14;;;;;;;6.32;4.65;;;308.10;1996.80;;;;;;4983351;28;20157;-67
2021/06/02 02:20:00;;;;;;;9.18;4.65;;;308.10;2022.40;;;;;;4997918;28;20113;-66
2021/06/02 02:22:44;;;;;;;9.57;5.22;;;308.00;2022.40;;;;;;5029407;28;20447;-67
2021/06/02 02:25:13;;;;;;;8.80;4.78;;;;;;;;;;5091800;28;20013;-68
2021/06/02 02:28:08;;;;;;;7.28;5.07;;;307.50;2124.80;;;;;;5091902;28;20378;-67
2021/06/02 02:30:48;;;;;;;7.55;5.63;;;;;;;;;;5087759;28;20055;-68
2021/06/02 02:33:20;;;;;;;7.10;4.75;;;;;;;;;;5091936;28;20028;-69
2021/06/02 02:35:53;;;;;;;7.22;5.32;;;;;;;;;;5091658;28;20107;-69
2021/06/02 02:38:55;;;;;;;9.73;5.00;;;307.80;2073.60;;;;;;5091749;28;20028;-68
2021/06/02 02:41:39;;;;;;;6.82;5.03;;;;;;;;;;5091524;28;20028;-68
2021/06/02 02:44:24;;;;;;;6.82;4.90;;;;;;;;;;5091820;28;20032;-67
2021/06/02 02:47:32;;;;;;;7.70;4.72;;;307.70;2099.20;;;;;;5091727;28;20385;-67
2021/06/02 02:50:15;;;;;;;5.90;4.57;;;307.70;2073.60;;;;;;5089135;28;20020;-68
2021/06/02 02:52:41;;;;;;;7.15;4.93;;;307.60;2073.60;;;;;;5095293;28;20474;-68
2021/06/02 02:55:08;;;;;;;7.63;4.95;;;307.60;2073.60;;;;;;5095273;28;20028;-67
2021/06/02 02:57:51;;;;;;;6.70;4.55;;;307.60;2099.20;;;;;;5095076;28;20497;-67
2021/06/02 03:00:23;;;;;;;7.38;4.57;;;307.50;2099.20;;;;;;5095124;28;20025;-67
2021/06/02 03:03:17;;;;;;;6.78;5.05;;;307.50;2124.80;;;;;;5095097;28;20105;-67
2021/06/02 03:06:12;;;;;;;6.15;4.97;;;307.50;2124.80;;;;;;5094942;28;20046;-67
2021/06/02 03:09:02;;;;;;;6.15;4.55;;;307.40;2124.80;;;;;;5094427;28;20036;-67
2021/06/02 03:11:34;;;;;;;7.45;5.00;;;;;;;;;;5094890;28;20114;-68
2021/06/02 03:14:05;;;;;;;6.55;5.20;;;;;;;;;;5095038;28;20080;-67
2021/06/02 03:16:31;;;;;;;;;;;;;;;;;;5095143;28;20020;-67
2021/06/02 03:18:57;;;;;;;7.20;5.88;;;;;;;;;;5087126;28;19915;-67
2021/06/02 03:21:42;;;;;;;12.27;5.55;;;;;;;;;;5090628;28;20103;-68
2021/06/02 03:24:08;;;;;;;7.60;5.35;;;;;;;;;;5094816;28;20081;-70
2021/06/02 03:26:36;;;;;;;6.40;5.40;;;;;;;;;;5094658;28;20569;-68
2021/06/02 03:29:14;;;;;;;8.23;5.20;;;;;;;;;;5094826;28;20496;-68
2021/06/02 03:31:58;;;;;;;8.50;6.03;;;;;;;;;;5094498;28;20470;-69
2021/06/02 03:34:27;;;;;;;10.50;5.43;;;307.30;2124.80;;;;;;5094666;28;20032;-66
2021/06/02 03:37:30;;;;;;;8.57;5.80;;;282.50;2099.20;;;;;;5094620;28;20012;-66
2021/06/02 03:40:11;;;;;;;10.20;5.88;;;;;;;;;;5094113;28;20494;-68
2021/06/02 03:43:06;;;;;;;6.82;5.05;;;307.80;2048.00;;;;;;5094183;28;20063;-66
2021/06/02 03:45:49;;;;;;;7.65;5.22;;;;;;;;;;5094246;28;20016;-67
2021/06/02 03:48:19;;;;;;;7.60;5.35;;;;;;;;;;5092620;28;20020;-67
2021/06/02 03:51:15;;;;;;;10.82;6.03;;;;;;;;;;5094027;28;20019;-70
2021/06/02 03:53:59;;;;;;;10.63;5.47;;;;;;;;;;5011827;28;20069;-69
2021/06/02 03:56:28;;;;;;;9.07;5.88;;;;;;;;;;5012108;28;20041;-68
2021/06/02 03:59:13;;;;;;;8.52;5.88;;;;;;;;;;5011850;28;20644;-68
2021/06/02 04:01:57;;;;;;;10.98;6.63;;;;;;;;;;5011722;28;20042;-68
2021/06/02 04:04:34;;;;;;;8.20;6.30;;;;;;;;;;5011616;28;20092;-68
2021/06/02 04:07:07;;;;;;;14.30;7.22;;;;;;;;;;5011788;28;20030;-67
2021/06/02 04:09:47;;;;;;;7.93;6.78;;;;;;;;;;5011539;28;20065;-67
2021/06/02 04:12:22;;;;;;;9.52;6.15;;;;;;;;;;5011626;28;20104;-69
2021/06/02 04:14:59;;;;;;;12.68;6.72;;;;;;;;;;5011645;28;20484;-67
2021/06/02 04:17:26;;;;;;;17.73;6.03;;;;;;;;;;5011576;28;20092;-67
2021/06/02 04:19:53;;;;;;;11.52;6.03;;;;;;;;;;5000113;28;20030;-67
2021/06/02 04:22:20;;;;;;;9.82;6.28;;;;;;;;;;5011406;28;20034;-67
2021/06/02 04:24:47;;;;;;;8.60;4.80;;;;;;;;;;5011348;28;20033;-67
2021/06/02 04:27:17;;;;;;;9.32;5.40;;;;;;;;;;5011574;28;20037;-67
2021/06/02 04:29:50;;;;;;;9.80;5.88;;;;;;;;;;5040640;28;20025;-67
2021/06/02 04:32:17;;;;;;;9.05;5.63;;;;;;;;;;5093514;28;20036;-67
2021/06/02 04:34:43;;;;;;;9.25;5.35;;;;;;;;;;5093488;28;20489;-67
2021/06/02 04:37:10;;;;;;;6.93;5.13;;;;;;;;;;5078835;28;20024;-68
2021/06/02 04:39:40;;;;;;;10.70;5.70;;;;;;;;;;5093451;28;20137;-69
2021/06/02 04:42:07;;;;;;;11.05;5.90;;;;;;;;;;5092894;28;20498;-68
2021/06/02 04:44:34;;;;;;;9.35;5.53;;;;;;;;;;5093326;28;20447;-70
2021/06/02 04:47:01;;;;;;;8.50;5.57;;;;;;;;;;5092920;28;20031;-69
2021/06/02 04:49:50;;;;;;;9.02;5.68;;;333.60;1971.20;;;;;;5090907;28;20059;-68
2021/06/02 04:52:31;;;;;;;7.88;5.95;;;333.60;1971.20;;;;;;5092751;28;20521;-69
2021/06/02 04:55:48;;;;;;;11.18;6.78;;;333.60;1971.20;;;;;;5093141;28;20073;-67
2021/06/02 04:58:47;;;;;;;10.63;6.75;;;333.60;1971.20;;;;;;5010965;28;20034;-70
2021/06/02 05:01:25;;;;;;;11.20;7.47;;;333.70;1996.80;;;;;;5010786;28;20018;-68
2021/06/02 05:04:27;;;;;;;11.63;7.97;;;333.70;1996.80;;;;;;5010477;28;20120;-67
2021/06/02 05:07:42;;;;;;;10.60;7.10;;;358.60;1971.20;;;;;;5010681;28;20035;-69
2021/06/02 05:10:29;;;;;;;11.98;8.52;;;358.50;1996.80;;;;;;4997150;28;20037;-68
2021/06/02 05:13:10;;;;;;;10.68;7.82;;;358.50;1996.80;;;;;;5010085;28;20073;-68
2021/06/02 05:15:54;;;;;;;11.95;6.93;;;;;;;;;;5010518;28;20034;-68
2021/06/02 05:18:39;;;;;;;11.93;6.35;;;;;;;;;;5008445;28;20061;-68
2021/06/02 05:24:25;;;;;;;15.07;5.72;;;;;;;;;;5010583;28;20419;-69
2021/06/02 05:27:09;;;;;;;9.93;6.22;;;;;;;;;;5010151;28;20535;-67
2021/06/02 05:30:12;;;;;;;18.65;9.27;;;384.40;1894.40;;;;;;5010483;28;20044;-66
2021/06/02 05:33:24;;;;;;;19.05;11.95;;;384.60;1868.80;;;;;;5073132;28;20467;-65
2021/06/02 05:36:14;;;;;;;16.23;9.55;;;384.60;1868.80;;;;;;5092282;28;20036;-67
2021/06/02 05:39:22;;;;;;;25.02;14.90;;;409.70;1843.20;;;;;;5092115;28;20020;-66
2021/06/02 05:42:01;;;;;;;30.98;16.80;;;409.70;1843.20;;;;;;5091631;28;20048;-67
2021/06/02 05:45:02;;;;;;;27.05;13.52;;;409.70;1843.20;;;;;;5092221;28;20068;-67
2021/06/02 05:47:43;;;;;;;26.17;13.32;;;409.60;1868.80;;;;;;5088358;28;20566;-67
2021/06/02 05:50:24;;;;;;;19.90;11.87;;;409.60;1843.20;;;;;;5090278;28;20117;-66
2021/06/02 05:53:04;;;;;;;15.05;7.38;;;409.60;1868.80;;;;;;5092206;28;20592;-66
2021/06/02 05:55:50;;;;;;;12.30;7.35;;;410.00;1843.20;;;;;;5092021;28;21097;-66
2021/06/02 05:58:21;;;;;;;11.25;6.03;;;410.00;1843.20;;;;;;5092041;28;20397;-68
2021/06/02 06:01:09;;;;;;;15.38;7.25;;;410.20;1817.60;;;;;;5091983;28;20020;-67
2021/06/02 06:03:49;;;;;;;14.40;7.05;;;410.40;1792.00;;;;;;5091977;28;20119;-68
2021/06/02 06:07:02;;;;;;;14.73;8.20;;;410.50;1792.00;;;;;;5091943;28;20016;-68
2021/06/02 06:09:53;;;;;;;16.73;8.45;;;;;;;;;;5009891;28;20034;-68
2021/06/02 06:12:57;;;;;;;12.38;7.35;;;435.60;1715.20;;;;;;5009969;28;20053;-69
2021/06/02 06:15:44;;;;;;;10.38;6.45;;;435.50;1920.00;;;;;;4932369;29;20102;-69
2021/06/02 06:18:46;;;;;;;15.52;8.48;;;435.70;1664.00;;;;;;4932137;29;20435;-68
2021/06/02 06:21:42;;;;;;;8.57;6.68;;;435.70;1612.80;;;;;;4927094;29;20039;-70
2021/06/02 06:24:12;;;;;;;11.73;7.15;;;435.80;1638.40;;;;;;4932880;29;20056;-68
2021/06/02 06:27:30;;;;;;;12.95;7.78;;;435.90;1561.60;;;;;;4936065;29;20205;-68
2021/06/02 06:29:58;;;;;;;12.60;6.63;;;436.10;1510.40;;;;;;4878937;29;20077;-69
2021/06/02 06:32:26;;;;;;;8.68;5.88;;;460.90;1561.60;;;;;;4879550;29;20043;-70
2021/06/02 06:34:53;;;;;;;12.98;7.55;;;461.20;1510.40;;;;;;4879317;29;20041;-70
2021/06/02 06:37:20;;;;;;;9.07;5.80;;;461.10;1536.00;;;;;;4878796;29;20428;-71
2021/06/02 06:39:53;;;;;;;7.93;5.70;;;461.20;1510.40;;;;;;4879228;29;20181;-71
2021/06/02 06:42:24;;;;;;;21.75;7.43;;;461.50;1484.80;;;;;;4879145;29;20048;-71
2021/06/02 06:44:55;;;;;;;9.63;4.85;;;461.60;1382.40;;;;;;4907512;29;20513;-72
2021/06/02 06:47:22;;;;;;;7.53;4.32;;;;;;;;;;4935674;29;20039;-70
2021/06/02 06:49:55;;;;;;;9.20;4.28;;;461.70;1356.80;;;;;;4985896;28;20125;-72
2021/06/02 06:52:26;;;;;;;8.50;4.43;;;461.70;1280.00;;;;;;5013050;28;20131;-72
2021/06/02 06:54:56;;;;;;;6.75;3.80;;;486.40;1305.60;;;;;;5013363;28;20030;-69
2021/06/02 06:57:23;;;;;;;16.42;6.60;;;486.40;1356.80;;;;;;5012933;28;20435;-72
2021/06/02 06:59:49;;;;;;;6.45;4.35;;;;;;;;;;5013023;28;20038;-75
2021/06/02 07:02:15;;;;;;;5.55;4.00;;;;;;;;;;5012818;28;20582;-75
2021/06/02 07:04:42;;;;;;;6.68;4.28;;;;;;;;;;4996524;28;20121;-74
2021/06/02 07:07:09;;;;;;;4.55;3.63;;;;;;;;;;5077533;28;20486;-74
2021/06/02 07:09:36;;;;;;;5.97;3.13;;;;;;;;;;5094769;28;20059;-76
2021/06/02 07:12:02;;;;;;;5.63;3.95;;;;;;;;;;5093622;28;20059;-76
2021/06/02 07:14:29;;;;;;;7.82;4.38;;;;;;;;;;5094675;28;20024;-76
2021/06/02 07:16:57;;;;;;;8.13;4.03;;;;;;;;;;5094842;28;20050;-74
2021/06/02 07:19:23;;;;;;;130.68;14.90;;;;;;;;;;5084569;28;20020;-75
2021/06/02 07:21:50;;;;;;;6.63;3.30;;;;;;;;;;5093918;28;20020;-74
2021/06/02 07:24:20;;;;;;;5.55;3.88;;;;;;;;;;5093432;28;20028;-74
2021/06/02 07:26:47;;;;;;;4.20;3.28;;;;;;;;;;5094417;28;20499;-75
2021/06/02 07:29:13;;;;;;;11.80;3.90;;;;;;;;;;5094721;28;20024;-75
2021/06/02 07:31:40;;;;;;;9.98;4.95;;;;;;;;;;5094320;28;20020;-75
2021/06/02 07:34:06;;;;;;;15.20;5.72;;;;;;;;;;5094807;28;20024;-71
2021/06/02 07:36:33;;;;;;;11.02;4.60;;;;;;;;;;5092763;28;20017;-72
2021/06/02 07:39:00;;;;;;;7.15;4.95;;;;;;;;;;5094308;28;20016;-71
2021/06/02 07:41:26;;;;;;;15.30;5.30;;;;;;;;;;5094052;28;20047;-71
2021/06/02 07:43:52;;;;;;;11.65;4.43;;;;;;;;;;5094103;28;20093;-72
2021/06/02 07:46:18;;;;;;;11.15;4.93;;;;;;;;;;5094447;28;20337;-71
2021/06/02 07:48:44;;;;;;;6.80;3.97;;;;;;;;;;5092664;28;20048;-72
2021/06/02 07:51:10;;;;;;;6.35;3.30;;;;;;;;;;5094101;28;20016;-72
2021/06/02 07:53:36;;;;;;;5.90;4.18;;;;;;;;;;5093897;28;20020;-73
2021/06/02 07:56:02;;;;;;;8.40;3.42;;;;;;;;;;5094062;28;20470;-73
2021/06/02 07:58:28;;;;;;;21.30;5.65;;;;;;;;;;5092787;28;20043;-74
2021/06/02 08:00:54;;;;;;;12.05;5.07;;;;;;;;;;5094060;28;20097;-74
2021/06/02 08:03:20;;;;;;;10.32;3.85;;;;;;;;;;5093856;28;20032;-73
2021/06/02 08:05:46;;;;;;;5.90;3.70;;;;;;;;;;5093750;28;20073;-73
2021/06/02 08:08:12;;;;;;;9.88;4.28;;;;;;;;;;5094087;28;20024;-74
2021/06/02 08:10:39;;;;;;;7.63;4.07;;;;;;;;;;5093682;28;20462;-72
2021/06/02 08:13:05;;;;;;;26.35;15.43;;;;;;;;;;5093954;28;20032;-72
2021/06/02 08:15:31;;;;;;;18.02;10.00;;;;;;;;;;5093632;28;20047;-72
2021/06/02 08:17:58;;;;;;;14.25;5.55;;;;;;;;;;5093523;28;20024;-73
2021/06/02 08:20:24;;;;;;;6.72;4.45;;;;;;;;;;5083104;28;20020;-72
2021/06/02 08:22:50;;;;;;;7.32;4.00;;;;;;;;;;5093512;28;20066;-71
2021/06/02 08:25:17;;;;;;;5.75;4.20;;;;;;;;;;5092343;28;20028;-72
2021/06/02 08:27:44;;;;;;;9.38;4.13;;;;;;;;;;5093217;28;20566;-72
2021/06/02 08:30:11;;;;;;;9.18;3.88;;;;;;;;;;5093389;28;20112;-73
2021/06/02 08:32:38;;;;;;;8.75;4.40;;;;;;;;;;5093374;28;20028;-72
2021/06/02 08:35:04;;;;;;;23.95;9.90;;;;;;;;;;5091939;28;20482;-72
2021/06/02 08:37:30;;;;;;;11.52;4.28;;;;;;;;;;5092218;28;20028;-74
2021/06/02 08:39:56;;;;;;;10.77;4.38;;;;;;;;;;5093001;28;20049;-73
2021/06/02 08:42:23;;;;;;;8.10;4.40;;;;;;;;;;5092882;28;20406;-76
2021/06/02 08:44:49;;;;;;;15.45;6.78;;;;;;;;;;5093233;28;20020;-74
2021/06/02 08:47:15;;;;;;;12.18;6.28;;;;;;;;;;5092217;28;20136;-74
2021/06/02 08:49:41;;;;;;;9.82;4.50;;;;;;;;;;5091795;28;20024;-75
2021/06/02 08:52:08;;;;;;;8.02;4.57;;;;;;;;;;5091545;28;20039;-75
2021/06/02 08:54:34;;;;;;;13.77;4.53;;;;;;;;;;5092937;28;20115;-71
2021/06/02 08:57:04;;;;;;;6.50;4.60;;;;;;;;;;5092573;28;20531;-71
2021/06/02 08:59:31;;;;;;;6.82;4.47;;;;;;;;;;5092891;28;20024;-74
2021/06/02 09:01:58;;;;;;;7.05;4.32;;;614.40;844.80;;;;;;5092640;28;20024;-71
2021/06/02 09:04:23;;;;;;;7.82;3.97;;;614.40;870.40;;;;;;5091251;28;20439;-76
2021/06/02 09:06:50;;;;;;;13.40;5.22;;;614.60;844.80;;;;;;5091101;28;20143;-70
2021/06/02 09:09:17;;;;;;;19.13;6.93;;;614.40;870.40;;;;;;5092525;28;20024;-70
2021/06/02 09:11:48;;;;;;;9.45;4.00;;;589.70;819.20;;;;;;5092491;28;20027;-69
2021/06/02 09:14:26;;;;;;;5.00;3.53;;;589.40;844.80;;;;;;5092640;28;20036;-72
2021/06/02 09:16:55;;;;;;;9.02;4.38;;;589.30;870.40;;;;;;5092663;28;20016;-71
2021/06/02 09:19:45;;;;;;;5.32;3.85;;;589.30;896.00;;;;;;5081866;28;20036;-73
2021/06/02 09:22:18;;;;;;;32.13;28.73;;;589.30;921.60;;;;;;5068161;28;20398;-73
2021/06/02 09:24:52;;;;;;;10.60;6.97;;;589.30;896.00;;;;;;5092305;28;20271;-72
2021/06/02 09:27:39;;;;;;;5.43;3.72;;;589.50;896.00;;;;;;5091112;28;20504;-72
2021/06/02 09:30:06;;;;;;;7.50;3.50;;;589.70;896.00;;;;;;5091835;28;20032;-71
2021/06/02 09:32:40;;;;;;;5.05;3.58;;;;;;;;;;5091072;28;20028;-72
2021/06/02 09:35:06;;;;;;;5.13;3.05;;;;;;;;;;5092377;28;20024;-71
2021/06/02 09:37:33;;;;;;;4.75;3.78;;;;;;;;;;5092467;28;20028;-72
2021/06/02 09:39:59;;;;;;;9.05;4.50;;;;;;;;;;5092247;28;20030;-72
2021/06/02 09:42:29;;;;;;;6.63;3.22;;;640.60;768.00;;;;;;5092148;28;20055;-71
2021/06/02 09:45:10;;;;;;;5.38;4.43;;;640.60;768.00;;;;;;5092268;28;20019;-72
2021/06/02 09:48:02;;;;;;;6.82;4.20;;;640.70;768.00;;;;;;5092032;28;20494;-71
2021/06/02 09:50:36;;;;;;;6.43;4.38;;;640.40;793.60;;;;;;5091003;28;20483;-72
2021/06/02 09:53:03;;;;;;;7.05;4.18;;;640.20;793.60;;;;;;5092112;28;20057;-71
2021/06/02 09:55:40;;;;;;;9.70;5.32;;;640.30;793.60;;;;;;5092151;28;20035;-75
2021/06/02 09:58:09;;;;;;;6.63;4.32;;;640.30;819.20;;;;;;5092408;28;20024;-75
2021/06/02 10:00:43;;;;;;;9.07;4.70;;;640.20;793.60;;;;;;5096220;28;20048;-74
2021/06/02 10:03:10;;;;;;;14.88;6.20;;;;;;;;;;5096024;28;20024;-72
2021/06/02 10:05:47;;;;;;;8.43;4.20;;;640.40;768.00;;;;;;5096024;28;20020;-71
2021/06/02 10:08:27;;;;;;;7.63;5.50;;;640.50;768.00;;;;;;5095925;28;20026;-71
2021/06/02 10:10:53;;;;;;;7.50;3.95;;;640.60;768.00;;;;;;5096250;28;20024;-71
2021/06/02 10:13:21;;;;;;;10.13;4.72;;;640.60;742.40;;;;;;5095959;28;20047;-72
2021/06/02 10:15:48;;;;;;;8.40;4.50;;;640.80;793.60;;;;;;5095907;28;20081;-70
2021/06/02 10:18:36;;;;;;;10.90;6.82;;;640.80;768.00;;;;;;5095911;28;20020;-72
2021/06/02 10:21:13;;;;;;;6.53;4.22;;;640.70;793.60;;;;;;5088758;28;20024;-73
2021/06/02 10:23:43;;;;;;;10.55;4.05;;;640.70;793.60;;;;;;5095647;28;20032;-72
2021/06/02 10:26:17;;;;;;;8.88;4.00;;;640.70;793.60;;;;;;5095739;28;20420;-72
2021/06/02 10:28:46;;;;;;;9.07;4.50;;;640.70;793.60;;;;;;5096221;28;20027;-72
2021/06/02 10:31:14;;;;;;;8.98;4.97;;;640.60;793.60;;;;;;5095833;28;20020;-71
2021/06/02 10:33:40;;;;;;;10.25;5.25;;;640.60;742.40;;;;;;5095294;28;20048;-71
2021/06/02 10:36:10;;;;;;;7.07;4.05;;;640.60;768.00;;;;;;5095600;28;20020;-72
2021/06/02 10:38:51;;;;;;;6.10;4.10;;;640.70;768.00;;;;;;5095596;28;20028;-74
2021/06/02 10:41:18;;;;;;;;;;;640.60;768.00;;;;;;5094439;28;20055;-72
2021/06/02 10:43:47;;;;;;;3.60;3.00;;;640.60;768.00;;;;;;5095234;28;19919;-74
2021/06/02 10:46:16;;;;;;;7.93;4.25;;;640.50;768.00;;;;;;5095295;28;20056;-71
2021/06/02 10:48:56;;;;;;;7.07;4.32;;;640.60;768.00;;;;;;5091515;28;20032;-71
2021/06/02 10:51:31;;;;;;;7.47;4.10;;;640.60;742.40;;;;;;5085959;28;20027;-71
2021/06/02 10:54:15;;;;;;;5.90;3.60;;;640.50;742.40;;;;;;5094982;28;20035;-70
2021/06/02 10:57:00;;;;;;;4.07;3.20;;;640.50;716.80;;;;;;5095176;28;20023;-72
2021/06/02 10:59:27;;;;;;;3.42;2.90;;;640.50;691.20;;;;;;5093486;28;20482;-70
2021/06/02 11:02:06;;;;;;;8.80;3.95;;;640.70;716.80;;;;;;5094942;28;20032;-75
2021/06/02 11:04:33;;;;;;;8.27;3.30;;;665.60;768.00;;;;;;5093786;28;20557;-73
2021/06/02 11:07:22;;;;;;;7.90;4.03;;;665.90;742.40;;;;;;5095076;28;20390;-72
2021/06/02 11:10:14;;;;;;;14.75;5.70;;;665.70;742.40;;;;;;5094096;28;20016;-72
2021/06/02 11:12:47;;;;;;;8.50;4.50;;;665.70;768.00;;;;;;4996061;28;20049;-73
2021/06/02 11:15:31;;;;;;;10.07;6.57;;;640.90;742.40;;;;;;4996373;28;20037;-73
2021/06/02 11:18:20;;;;;;;8.73;4.38;;;665.60;768.00;;;;;;4995803;28;20038;-73
2021/06/02 11:20:55;;;;;;;7.30;3.65;;;666.30;768.00;;;;;;4926532;29;20082;-72
2021/06/02 11:23:29;;;;;;;8.10;3.85;;;666.00;768.00;;;;;;4935064;29;20122;-75
2021/06/02 11:26:15;;;;;;;7.53;4.22;;;;;;;;;;4935087;29;20427;-74
2021/06/02 11:28:45;;;;;;;6.85;2.97;;;;;;;;;;4934778;29;20115;-74
2021/06/02 11:31:20;;;;;;;8.20;3.30;;;;;;;;;;4934895;29;20040;-74
2021/06/02 11:33:46;;;;;;;5.20;3.10;;;691.60;691.20;;;;;;4929161;29;20554;-72
2021/06/02 11:36:12;;;;;;;3.70;2.53;;;;;;;;;;4927064;29;20043;-73
2021/06/02 11:38:40;;;;;;;5.03;2.97;;;;;;;;;;4934664;29;20079;-73
2021/06/02 11:41:06;;;;;;;4.03;3.08;;;;;;;;;;4934830;29;20043;-74
2021/06/02 11:43:32;;;;;;;7.15;3.88;;;;;;;;;;4918561;29;20051;-71
2021/06/02 11:46:00;;;;;;;8.52;5.30;;;;;;;;;;4934644;29;20486;-70
2021/06/02 11:48:27;;;;;;;12.65;4.88;;;;;;;;;;4919306;28;20144;-69
2021/06/02 11:50:54;;;;;;;4.22;2.90;;;;;;;;;;5012143;28;20033;-69
2021/06/02 11:53:20;;;;;;;6.40;3.88;;;;;;;;;;5012120;28;20120;-69
2021/06/02 11:55:47;;;;;;;9.15;3.92;;;;;;;;;;5011538;28;20034;-69
2021/06/02 11:58:13;;;;;;;7.88;3.40;;;;;;;;;;5069206;28;20105;-69
2021/06/02 12:00:39;;;;;;;9.45;3.88;;;;;;;;;;5093930;28;20496;-68
2021/06/02 12:03:10;;;;;;;10.57;4.15;;;;;;;;;;5093811;28;20028;-75
2021/06/02 12:05:40;;;;;;;6.97;4.97;;;;;;;;;;5093870;28;20073;-73
2021/06/02 12:08:16;;;;;;;5.93;2.95;;;;;;;;;;5093754;28;20049;-74
2021/06/02 12:10:43;;;;;;;10.95;4.95;;;;;;;;;;5093831;28;20023;-74
2021/06/02 12:13:18;;;;;;;9.30;4.20;;;;;;;;;;5094036;28;20374;-74
2021/06/02 12:15:54;;;;;;;5.75;3.60;;;;;;;;;;5093734;28;20032;-75
2021/06/02 12:18:34;;;;;;;5.22;3.80;;;;;;;;;;5094072;28;20022;-74
2021/06/02 12:21:09;;;;;;;6.65;3.75;;;;;;;;;;5086195;28;20032;-74
2021/06/02 12:23:35;;;;;;;4.38;2.70;;;;;;;;;;5092555;28;20029;-74
2021/06/02 12:26:02;;;;;;;7.15;3.53;;;;;;;;;;5093365;28;20359;-74
2021/06/02 12:28:28;;;;;;;8.52;3.78;;;;;;;;;;5093359;28;20041;-74
2021/06/02 12:30:54;;;;;;;8.68;3.15;;;;;;;;;;5093380;28;20085;-75
2021/06/02 12:33:20;;;;;;;6.82;3.47;;;;;;;;;;5093293;28;20035;-75
2021/06/02 12:35:47;;;;;;;4.45;3.15;;;;;;;;;;5092077;28;20420;-74
2021/06/02 12:38:16;;;;;;;9.52;5.63;;;;;;;;;;5091833;28;20043;-75
2021/06/02 12:40:44;;;;;;;8.38;3.47;;;;;;;;;;5091890;28;20057;-72
2021/06/02 12:43:14;;;;;;;12.00;3.47;;;;;;;;;;5093123;28;20470;-72
2021/06/02 12:45:40;;;;;;;4.45;2.95;;;;;;;;;;5091731;28;20027;-70
2021/06/02 12:48:07;;;;;;;6.20;3.28;;;;;;;;;;5093017;28;20024;-70
2021/06/02 12:50:36;;;;;;;6.35;4.03;;;;;;;;;;5092723;28;20150;-69
2021/06/02 12:53:03;;;;;;;6.10;3.10;;;;;;;;;;5093339;28;20024;-71
2021/06/02 12:55:29;;;;;;;5.95;3.72;;;;;;;;;;5092994;28;20097;-72
2021/06/02 12:57:59;;;;;;;6.72;3.45;;;;;;;;;;5092813;28;20517;-71
2021/06/02 13:00:26;;;;;;;4.97;4.18;;;;;;;;;;5093160;28;20032;-71
2021/06/02 13:02:52;;;;;;;4.95;3.63;;;;;;;;;;5092709;28;20035;-69
2021/06/02 13:05:18;;;;;;;5.72;4.00;;;;;;;;;;5092680;28;20052;-69
2021/06/02 13:07:44;;;;;;;6.45;3.70;;;;;;;;;;5092592;28;20097;-74
2021/06/02 13:10:11;;;;;;;5.53;3.67;;;;;;;;;;5092706;28;20019;-71
2021/06/02 13:12:37;;;;;;;3.50;3.17;;;;;;;;;;5093149;28;20047;-70
2021/06/02 13:15:21;;;;;;;6.07;4.03;;;;;;;;;;5092540;28;20378;-68
2021/06/02 13:17:47;;;;;;;4.95;3.85;;;;;;;;;;5078495;28;20050;-69
2021/06/02 13:20:13;;;;;;;5.97;3.00;;;;;;;;;;5083569;28;20027;-69
2021/06/02 13:22:39;;;;;;;7.00;4.13;;;;;;;;;;5079958;28;20151;-73
2021/06/02 13:25:06;;;;;;;6.57;4.40;;;;;;;;;;5089450;28;20039;-75
2021/06/02 13:27:32;;;;;;;5.20;3.53;;;;;;;;;;5092544;28;20016;-73
2021/06/02 13:30:04;;;;;;;6.88;3.40;;;;;;;;;;5092277;28;20024;-73
2021/06/02 13:32:30;;;;;;;6.72;4.40;;;;;;;;;;5092445;28;20190;-73
2021/06/02 13:34:56;;;;;;;6.15;5.05;;;;;;;;;;5091837;28;20024;-71
2021/06/02 13:37:31;;;;;;;5.60;4.13;;;;;;;;;;5092281;28;20024;-70
2021/06/02 13:40:10;;;;;;;5.07;3.53;;;;;;;;;;5091917;28;20020;-69
2021/06/02 13:42:37;;;;;;;4.82;3.15;;;;;;;;;;5092009;28;20135;-70
2021/06/02 13:45:05;;;;;;;6.18;4.55;;;;;;;;;;5091042;28;20382;-68
2021/06/02 13:47:31;;;;;;;8.45;6.00;;;;;;;;;;5092140;28;20028;-71
2021/06/02 13:50:11;;;;;;;25.80;13.05;;;;;;;;;;5078832;28;20025;-72
2021/06/02 13:52:38;;;;;;;9.18;4.43;;;;;;;;;;5066093;28;20059;-72
2021/06/02 13:55:08;;;;;;;8.02;4.38;;;;;;;;;;5092574;28;20035;-71
2021/06/02 13:57:38;;;;;;;7.85;6.30;;;;;;;;;;5091853;28;20035;-72
2021/06/02 14:00:05;;;;;;;8.40;5.45;;;;;;;;;;5092101;28;20063;-70
2021/06/02 14:02:35;;;;;;;10.93;6.15;;;;;;;;;;5091829;28;20024;-71
2021/06/02 14:05:02;;;;;;;8.18;6.13;;;;;;;;;;5092069;28;20051;-69
2021/06/02 14:07:28;;;;;;;13.07;7.38;;;;;;;;;;5092228;28;20069;-70
2021/06/02 14:09:54;;;;;;;6.00;4.18;;;;;;;;;;5086809;28;20529;-69
2021/06/02 14:12:20;;;;;;;14.05;9.00;;;;;;;;;;5083383;28;20062;-69
2021/06/02 14:14:47;;;;;;;9.07;4.03;;;;;;;;;;5091883;28;20024;-72
2021/06/02 14:17:14;;;;;;;11.40;3.88;;;;;;;;;;5091992;28;20024;-69